Time,TemperatureF,DewpointF,PressureIn,WindDirection,WindDirectionDegrees,WindSpeedMPH,WindSpeedGustMPH,Humidity,HourlyPrecipIn,Conditions,Clouds,dailyrainin,SoftwareType,DateUTC
2013-03-02 00:00:00,33.0,-99.9,-100.00,East,89,2.0,2.0,-999,-99.99,,,-99.99,,2013-03-02 07:00:00,
2013-03-02 00:52:00,33.0,-99.9,-100.00,East,89,2.0,2.0,-999,-99.99,,,-99.99,,2013-03-02 07:52:00,
2013-03-02 01:00:00,33.0,-99.9,-100.00,NW,315,1.0,2.0,-999,-99.99,,,-99.99,,2013-03-02 08:00:00,
2013-03-02 01:52:00,33.0,-99.9,-100.00,NW,315,1.0,2.0,-999,-99.99,,,-99.99,,2013-03-02 08:52:00,
2013-03-02 02:00:00,32.0,-99.9,-100.00,NNW,344,1.0,2.0,-999,-99.99,,,-99.99,,2013-03-02 09:00:00,
2013-03-02 02:52:00,32.0,-99.9,-100.00,NNW,344,1.0,2.0,-999,-99.99,,,-99.99,,2013-03-02 09:52:00,
2013-03-02 03:00:00,32.0,-99.9,-100.00,West,270,4.0,5.0,-999,-99.99,,,-99.99,,2013-03-02 10:00:00,
2013-03-02 03:52:00,32.0,-99.9,-100.00,West,270,4.0,5.0,-999,-99.99,,,-99.99,,2013-03-02 10:52:00,
2013-03-02 04:00:00,33.0,-99.9,-100.00,West,270,7.0,8.0,-999,-99.99,,,-99.99,,2013-03-02 11:00:00,
2013-03-02 04:52:00,33.0,-99.9,-100.00,West,270,7.0,8.0,-999,-99.99,,,-99.99,,2013-03-02 11:52:00,
2013-03-02 05:00:00,35.0,-99.9,-100.00,WNW,287,6.0,7.0,-999,-99.99,,,-99.99,,2013-03-02 12:00:00,
2013-03-02 05:53:00,35.0,-99.9,-100.00,WNW,287,6.0,7.0,-999,-99.99,,,-99.99,,2013-03-02 12:53:00,
2013-03-02 06:00:00,33.0,-99.9,-100.00,WNW,292,7.0,8.0,-999,-99.99,,,-99.99,,2013-03-02 13:00:00,
2013-03-02 06:53:00,33.0,-99.9,-100.00,WNW,292,7.0,8.0,-999,-99.99,,,-99.99,,2013-03-02 13:53:00,
2013-03-02 07:00:00,33.0,-99.9,-100.00,WNW,294,8.0,8.0,-999,-99.99,,,-99.99,,2013-03-02 14:00:00,
2013-03-02 07:52:00,33.0,-99.9,-100.00,WNW,294,8.0,8.0,-999,-99.99,,,-99.99,,2013-03-02 14:52:00,
2013-03-02 08:00:00,37.0,-99.9,-100.00,NW,305,9.0,12.0,-999,-99.99,,,-99.99,,2013-03-02 15:00:00,
2013-03-02 08:52:00,37.0,-99.9,-100.00,NW,305,9.0,12.0,-999,-99.99,,,-99.99,,2013-03-02 15:52:00,
2013-03-02 09:00:00,41.0,-99.9,-100.00,NW,305,9.0,12.0,-999,-99.99,,,-99.99,,2013-03-02 16:00:00,
2013-03-02 09:52:00,41.0,-99.9,-100.00,NW,305,9.0,12.0,-999,-99.99,,,-99.99,,2013-03-02 16:52:00,
2013-03-02 10:00:00,42.0,-99.9,-100.00,WNW,298,13.0,19.0,-999,-99.99,,,-99.99,,2013-03-02 17:00:00,
2013-03-02 10:52:00,42.0,-99.9,-100.00,WNW,298,13.0,19.0,-999,-99.99,,,-99.99,,2013-03-02 17:52:00,
2013-03-02 11:00:00,46.0,-99.9,-100.00,NW,318,16.0,19.0,-999,-99.99,,,-99.99,,2013-03-02 18:00:00,
2013-03-02 11:52:00,46.0,-99.9,-100.00,NW,318,16.0,19.0,-999,-99.99,,,-99.99,,2013-03-02 18:52:00,
2013-03-02 12:00:00,50.0,-99.9,-100.00,WNW,300,12.0,14.0,-999,-99.99,,,-99.99,,2013-03-02 19:00:00,
2013-03-02 12:52:00,50.0,-99.9,-100.00,WNW,300,12.0,14.0,-999,-99.99,,,-99.99,,2013-03-02 19:52:00,
2013-03-02 13:00:00,51.0,-99.9,-100.00,NW,307,14.0,15.0,-999,-99.99,,,-99.99,,2013-03-02 20:00:00,
2013-03-02 13:53:00,51.0,-99.9,-100.00,NW,307,14.0,15.0,-999,-99.99,,,-99.99,,2013-03-02 20:53:00,
2013-03-02 14:00:00,53.0,-99.9,-100.00,NW,321,15.0,17.0,-999,-99.99,,,-99.99,,2013-03-02 21:00:00,
2013-03-02 14:53:00,53.0,-99.9,-100.00,NW,321,15.0,17.0,-999,-99.99,,,-99.99,,2013-03-02 21:53:00,
2013-03-02 15:00:00,57.0,-99.9,-100.00,WNW,285,13.0,16.0,-999,-99.99,,,-99.99,,2013-03-02 22:00:00,
2013-03-02 15:52:00,57.0,-99.9,-100.00,WNW,285,13.0,16.0,-999,-99.99,,,-99.99,,2013-03-02 22:52:00,
2013-03-02 16:00:00,57.0,-99.9,-100.00,WNW,292,11.0,16.0,-999,-99.99,,,-99.99,,2013-03-02 23:00:00,
2013-03-02 16:52:00,57.0,-99.9,-100.00,WNW,292,11.0,16.0,-999,-99.99,,,-99.99,,2013-03-02 23:52:00,
2013-03-02 17:00:00,53.0,-99.9,-100.00,WNW,297,9.0,10.0,-999,-99.99,,,-99.99,,2013-03-03 00:00:00,
2013-03-02 17:53:00,53.0,-99.9,-100.00,WNW,297,9.0,10.0,-999,-99.99,,,-99.99,,2013-03-03 00:53:00,
2013-03-02 18:00:00,48.0,-99.9,-100.00,West,274,10.0,11.0,-999,-99.99,,,-99.99,,2013-03-03 01:00:00,
2013-03-02 18:52:00,48.0,-99.9,-100.00,West,274,10.0,11.0,-999,-99.99,,,-99.99,,2013-03-03 01:52:00,
2013-03-02 19:00:00,44.0,-99.9,-100.00,WSW,247,8.0,8.0,-999,-99.99,,,-99.99,,2013-03-03 02:00:00,
2013-03-02 19:52:00,44.0,-99.9,-100.00,WSW,247,8.0,8.0,-999,-99.99,,,-99.99,,2013-03-03 02:52:00,
2013-03-02 20:00:00,42.0,-99.9,-100.00,NW,323,9.0,12.0,-999,-99.99,,,-99.99,,2013-03-03 03:00:00,
2013-03-02 20:52:00,42.0,-99.9,-100.00,NW,323,9.0,12.0,-999,-99.99,,,-99.99,,2013-03-03 03:52:00,
2013-03-02 21:00:00,42.0,-99.9,-100.00,WNW,295,11.0,13.0,-999,-99.99,,,-99.99,,2013-03-03 04:00:00,
2013-03-02 21:52:00,42.0,-99.9,-100.00,WNW,295,11.0,13.0,-999,-99.99,,,-99.99,,2013-03-03 04:52:00,
2013-03-02 22:00:00,39.0,-99.9,-100.00,NW,307,3.0,8.0,-999,-99.99,,,-99.99,,2013-03-03 05:00:00,
2013-03-02 22:52:00,39.0,-99.9,-100.00,NW,307,3.0,8.0,-999,-99.99,,,-99.99,,2013-03-03 05:52:00,
2013-03-02 23:00:00,39.0,-99.9,-100.00,WSW,249,9.0,15.0,-999,-99.99,,,-99.99,,2013-03-03 06:00:00,
2013-03-02 23:52:00,39.0,-99.9,-100.00,WSW,249,9.0,15.0,-999,-99.99,,,-99.99,,2013-03-03 06:52:00,